sensor_id;sensor_type;location;lat;lon;timestamp;pressure;altitude;pressure_sealevel;temperature;humidity
10079;BME280;5078;42.544;22.966;2023-09-12T00:01:34;94066.63;;;14.55;90.79
10079;BME280;5078;42.544;22.966;2023-09-12T00:04:00;94064.81;;;14.62;88.97
10079;BME280;5078;42.544;22.966;2023-09-12T00:06:27;94073.06;;;14.67;88.73
10079;BME280;5078;42.544;22.966;2023-09-12T00:08:54;94069.66;;;14.52;89.39
10079;BME280;5078;42.544;22.966;2023-09-12T00:11:20;94076.69;;;14.10;89.71
10079;BME280;5078;42.544;22.966;2023-09-12T00:13:51;94074.31;;;13.93;91.25
10079;BME280;5078;42.544;22.966;2023-09-12T00:16:19;94076.59;;;13.96;91.81
10079;BME280;5078;42.544;22.966;2023-09-12T00:18:45;94070.63;;;13.94;90.65
10079;BME280;5078;42.544;22.966;2023-09-12T00:21:12;94076.72;;;13.88;91.09
10079;BME280;5078;42.544;22.966;2023-09-12T00:23:39;94082.28;;;13.72;92.20
10079;BME280;5078;42.544;22.966;2023-09-12T00:26:06;94079.63;;;13.72;91.76
10079;BME280;5078;42.544;22.966;2023-09-12T00:28:32;94093.00;;;12.61;100.00
10079;BME280;5078;42.544;22.966;2023-09-12T00:30:59;94067.59;;;12.88;100.00
10079;BME280;5078;42.544;22.966;2023-09-12T00:33:27;94091.44;;;13.48;98.37
10079;BME280;5078;42.544;22.966;2023-09-12T00:35:54;94089.84;;;13.32;99.02
10079;BME280;5078;42.544;22.966;2023-09-12T00:38:21;94091.78;;;13.08;100.00
10079;BME280;5078;42.544;22.966;2023-09-12T00:40:47;94098.88;;;13.31;100.00
10079;BME280;5078;42.544;22.966;2023-09-12T00:43:15;94090.47;;;13.49;97.10
10079;BME280;5078;42.544;22.966;2023-09-12T00:45:42;94078.09;;;13.11;99.64
10079;BME280;5078;42.544;22.966;2023-09-12T00:48:09;94101.78;;;13.06;100.00
10079;BME280;5078;42.544;22.966;2023-09-12T00:50:38;94096.25;;;13.08;100.00
10079;BME280;5078;42.544;22.966;2023-09-12T00:53:06;94091.88;;;13.30;100.00
10079;BME280;5078;42.544;22.966;2023-09-12T00:55:35;94092.56;;;13.53;97.97
10079;BME280;5078;42.544;22.966;2023-09-12T00:58:03;94107.56;;;13.10;100.00
10079;BME280;5078;42.544;22.966;2023-09-12T01:00:30;94095.16;;;13.17;100.00
10079;BME280;5078;42.544;22.966;2023-09-12T01:02:58;94089.84;;;13.32;99.70
10079;BME280;5078;42.544;22.966;2023-09-12T01:05:24;94099.91;;;13.51;98.08
10079;BME280;5078;42.544;22.966;2023-09-12T01:07:53;94100.81;;;13.58;97.13
10079;BME280;5078;42.544;22.966;2023-09-12T01:10:20;94099.34;;;13.56;97.48
10079;BME280;5078;42.544;22.966;2023-09-12T01:12:46;94099.22;;;13.64;97.06
10079;BME280;5078;42.544;22.966;2023-09-12T01:15:13;94105.38;;;13.13;100.00
10079;BME280;5078;42.544;22.966;2023-09-12T01:17:41;94108.22;;;12.97;100.00
10079;BME280;5078;42.544;22.966;2023-09-12T01:20:11;94109.88;;;12.98;100.00
10079;BME280;5078;42.544;22.966;2023-09-12T01:26:24;94106.28;;;13.21;100.00
10079;BME280;5078;42.544;22.966;2023-09-12T01:28:57;94108.94;;;13.21;100.00
10079;BME280;5078;42.544;22.966;2023-09-12T01:31:25;94106.19;;;12.99;100.00
10079;BME280;5078;42.544;22.966;2023-09-12T01:33:55;94098.28;;;13.21;100.00
10079;BME280;5078;42.544;22.966;2023-09-12T01:36:21;94102.16;;;13.33;100.00
10079;BME280;5078;42.544;22.966;2023-09-12T01:38:48;94104.53;;;13.28;100.00
10079;BME280;5078;42.544;22.966;2023-09-12T01:41:15;94107.50;;;13.03;100.00
10079;BME280;5078;42.544;22.966;2023-09-12T01:43:43;94115.81;;;13.00;100.00
10079;BME280;5078;42.544;22.966;2023-09-12T01:46:12;94112.53;;;13.13;100.00
10079;BME280;5078;42.544;22.966;2023-09-12T01:48:41;94111.78;;;13.04;100.00
10079;BME280;5078;42.544;22.966;2023-09-12T01:51:10;94108.69;;;13.15;100.00
10079;BME280;5078;42.544;22.966;2023-09-12T01:53:38;94114.28;;;13.21;100.00
10079;BME280;5078;42.544;22.966;2023-09-12T01:56:05;94112.97;;;13.16;100.00
10079;BME280;5078;42.544;22.966;2023-09-12T01:58:32;94115.94;;;12.92;100.00
10079;BME280;5078;42.544;22.966;2023-09-12T02:00:59;94116.16;;;12.52;100.00
10079;BME280;5078;42.544;22.966;2023-09-12T02:03:27;94120.47;;;12.39;100.00
10079;BME280;5078;42.544;22.966;2023-09-12T02:05:53;94115.56;;;12.50;100.00
10079;BME280;5078;42.544;22.966;2023-09-12T02:08:20;94114.97;;;12.55;100.00
10079;BME280;5078;42.544;22.966;2023-09-12T02:10:47;94111.94;;;12.28;100.00
10079;BME280;5078;42.544;22.966;2023-09-12T02:13:13;94124.53;;;12.12;100.00
10079;BME280;5078;42.544;22.966;2023-09-12T02:15:40;94117.38;;;12.12;100.00
10079;BME280;5078;42.544;22.966;2023-09-12T02:18:07;94121.91;;;12.26;100.00
10079;BME280;5078;42.544;22.966;2023-09-12T02:20:38;94116.94;;;12.61;100.00
10079;BME280;5078;42.544;22.966;2023-09-12T02:23:04;94119.50;;;12.69;100.00
10079;BME280;5078;42.544;22.966;2023-09-12T02:25:31;94119.03;;;12.51;100.00
10079;BME280;5078;42.544;22.966;2023-09-12T02:27:58;94121.03;;;12.49;100.00
10079;BME280;5078;42.544;22.966;2023-09-12T02:30:25;94121.56;;;11.83;100.00
10079;BME280;5078;42.544;22.966;2023-09-12T02:32:51;94120.25;;;11.79;100.00
10079;BME280;5078;42.544;22.966;2023-09-12T02:35:18;94123.78;;;11.49;100.00
10079;BME280;5078;42.544;22.966;2023-09-12T02:37:46;94123.88;;;11.86;100.00
10079;BME280;5078;42.544;22.966;2023-09-12T02:40:14;94117.44;;;12.04;100.00
10079;BME280;5078;42.544;22.966;2023-09-12T02:42:40;94117.91;;;12.07;100.00
10079;BME280;5078;42.544;22.966;2023-09-12T02:45:08;94124.16;;;12.15;100.00
10079;BME280;5078;42.544;22.966;2023-09-12T02:47:35;94132.00;;;11.85;100.00
10079;BME280;5078;42.544;22.966;2023-09-12T02:50:02;94126.50;;;11.63;100.00
10079;BME280;5078;42.544;22.966;2023-09-12T02:52:29;94126.06;;;12.06;100.00
10079;BME280;5078;42.544;22.966;2023-09-12T02:54:57;94129.34;;;12.08;100.00
10079;BME280;5078;42.544;22.966;2023-09-12T02:57:24;94130.16;;;11.94;100.00
10079;BME280;5078;42.544;22.966;2023-09-12T02:59:50;94125.75;;;11.47;100.00
10079;BME280;5078;42.544;22.966;2023-09-12T03:02:17;94134.88;;;11.13;100.00
10079;BME280;5078;42.544;22.966;2023-09-12T03:04:44;94133.44;;;11.41;100.00
10079;BME280;5078;42.544;22.966;2023-09-12T03:07:10;94127.06;;;11.19;100.00
10079;BME280;5078;42.544;22.966;2023-09-12T03:09:37;94132.03;;;11.54;100.00
10079;BME280;5078;42.544;22.966;2023-09-12T03:12:06;94133.31;;;11.58;100.00
10079;BME280;5078;42.544;22.966;2023-09-12T03:14:32;94131.44;;;11.43;100.00
10079;BME280;5078;42.544;22.966;2023-09-12T03:16:59;94141.19;;;11.51;100.00
10079;BME280;5078;42.544;22.966;2023-09-12T03:19:26;94139.34;;;11.52;100.00
10079;BME280;5078;42.544;22.966;2023-09-12T03:21:52;94135.34;;;11.56;100.00
10079;BME280;5078;42.544;22.966;2023-09-12T03:24:19;94135.94;;;11.66;100.00
10079;BME280;5078;42.544;22.966;2023-09-12T03:26:49;94135.56;;;11.46;100.00
10079;BME280;5078;42.544;22.966;2023-09-12T03:29:17;94140.69;;;11.16;100.00
10079;BME280;5078;42.544;22.966;2023-09-12T03:31:43;94145.75;;;11.34;100.00
10079;BME280;5078;42.544;22.966;2023-09-12T03:34:10;94136.84;;;11.50;100.00
10079;BME280;5078;42.544;22.966;2023-09-12T03:36:37;94146.34;;;11.44;100.00
10079;BME280;5078;42.544;22.966;2023-09-12T03:39:04;94145.56;;;11.36;100.00
10079;BME280;5078;42.544;22.966;2023-09-12T03:41:33;94151.81;;;11.43;100.00
10079;BME280;5078;42.544;22.966;2023-09-12T03:44:00;94146.03;;;11.39;100.00
10079;BME280;5078;42.544;22.966;2023-09-12T03:46:29;94151.22;;;11.33;100.00
10079;BME280;5078;42.544;22.966;2023-09-12T03:48:55;94149.78;;;11.22;100.00
10079;BME280;5078;42.544;22.966;2023-09-12T03:51:22;94149.13;;;11.20;100.00
10079;BME280;5078;42.544;22.966;2023-09-12T03:53:49;94145.22;;;10.99;100.00
10079;BME280;5078;42.544;22.966;2023-09-12T03:56:16;94155.47;;;11.11;100.00
10079;BME280;5078;42.544;22.966;2023-09-12T03:58:45;94149.16;;;11.12;100.00
10079;BME280;5078;42.544;22.966;2023-09-12T04:01:12;94151.66;;;11.13;100.00
10079;BME280;5078;42.544;22.966;2023-09-12T04:03:40;94151.72;;;11.28;100.00
10079;BME280;5078;42.544;22.966;2023-09-12T04:06:06;94163.50;;;11.26;100.00
10079;BME280;5078;42.544;22.966;2023-09-12T04:08:33;94158.75;;;11.21;100.00
10079;BME280;5078;42.544;22.966;2023-09-12T04:11:00;94158.94;;;11.11;100.00
10079;BME280;5078;42.544;22.966;2023-09-12T04:13:26;94165.53;;;10.10;100.00
10079;BME280;5078;42.544;22.966;2023-09-12T04:15:53;94166.84;;;10.72;100.00
10079;BME280;5078;42.544;22.966;2023-09-12T04:18:20;94166.31;;;10.85;100.00
10079;BME280;5078;42.544;22.966;2023-09-12T04:20:48;94161.41;;;11.21;100.00
10079;BME280;5078;42.544;22.966;2023-09-12T04:23:15;94163.91;;;11.54;100.00
10079;BME280;5078;42.544;22.966;2023-09-12T04:25:42;94154.59;;;11.89;100.00
10079;BME280;5078;42.544;22.966;2023-09-12T04:28:09;94165.28;;;12.04;100.00
10079;BME280;5078;42.544;22.966;2023-09-12T04:30:36;94174.00;;;11.58;100.00
10079;BME280;5078;42.544;22.966;2023-09-12T04:33:03;94170.97;;;11.30;100.00
10079;BME280;5078;42.544;22.966;2023-09-12T04:35:32;94172.03;;;11.21;100.00
10079;BME280;5078;42.544;22.966;2023-09-12T04:38:01;94161.41;;;11.13;100.00
10079;BME280;5078;42.544;22.966;2023-09-12T04:40:28;94167.53;;;11.53;100.00
10079;BME280;5078;42.544;22.966;2023-09-12T04:42:55;94166.16;;;11.65;100.00
10079;BME280;5078;42.544;22.966;2023-09-12T04:45:21;94166.41;;;11.78;100.00
10079;BME280;5078;42.544;22.966;2023-09-12T04:47:48;94168.13;;;11.71;100.00
10079;BME280;5078;42.544;22.966;2023-09-12T04:50:15;94171.31;;;11.27;100.00
10079;BME280;5078;42.544;22.966;2023-09-12T04:52:41;94159.00;;;11.34;100.00
10079;BME280;5078;42.544;22.966;2023-09-12T04:55:10;94171.19;;;11.91;100.00
10079;BME280;5078;42.544;22.966;2023-09-12T04:57:36;94168.34;;;12.39;100.00
10079;BME280;5078;42.544;22.966;2023-09-12T05:00:03;94168.50;;;12.90;100.00
10079;BME280;5078;42.544;22.966;2023-09-12T05:02:31;94168.09;;;13.31;100.00
10079;BME280;5078;42.544;22.966;2023-09-12T05:04:58;94176.72;;;13.84;99.71
10079;BME280;5078;42.544;22.966;2023-09-12T05:07:24;94168.44;;;14.37;93.51
10079;BME280;5078;42.544;22.966;2023-09-12T05:09:51;94172.75;;;14.81;86.54
10079;BME280;5078;42.544;22.966;2023-09-12T05:12:19;94171.19;;;14.93;86.25
10079;BME280;5078;42.544;22.966;2023-09-12T05:14:46;94169.41;;;15.07;84.52
10079;BME280;5078;42.544;22.966;2023-09-12T05:17:13;94175.53;;;15.29;81.52
10079;BME280;5078;42.544;22.966;2023-09-12T05:19:39;94173.91;;;15.69;76.79
10079;BME280;5078;42.544;22.966;2023-09-12T05:22:06;94169.91;;;16.00;71.92
10079;BME280;5078;42.544;22.966;2023-09-12T05:24:33;94174.41;;;16.00;71.78
10079;BME280;5078;42.544;22.966;2023-09-12T05:26:59;94175.28;;;15.24;73.72
10079;BME280;5078;42.544;22.966;2023-09-12T05:29:28;94171.78;;;15.23;79.41
10079;BME280;5078;42.544;22.966;2023-09-12T05:31:54;94173.88;;;15.00;82.71
10079;BME280;5078;42.544;22.966;2023-09-12T05:34:21;94172.38;;;15.95;73.61
10079;BME280;5078;42.544;22.966;2023-09-12T05:36:48;94172.00;;;16.25;70.41
10079;BME280;5078;42.544;22.966;2023-09-12T05:39:14;94140.72;;;16.18;70.46
10079;BME280;5078;42.544;22.966;2023-09-12T05:41:41;94170.38;;;16.24;71.12
10079;BME280;5078;42.544;22.966;2023-09-12T05:44:08;94166.53;;;16.93;66.08
10079;BME280;5078;42.544;22.966;2023-09-12T05:46:36;94168.72;;;17.42;62.95
10079;BME280;5078;42.544;22.966;2023-09-12T05:49:03;94151.69;;;17.03;62.31
10079;BME280;5078;42.544;22.966;2023-09-12T05:51:30;94157.63;;;17.19;64.91
10079;BME280;5078;42.544;22.966;2023-09-12T05:53:56;94168.41;;;16.86;63.45
10079;BME280;5078;42.544;22.966;2023-09-12T05:56:23;94171.09;;;17.71;61.05
10079;BME280;5078;42.544;22.966;2023-09-12T05:58:50;94170.59;;;18.00;58.59
10079;BME280;5078;42.544;22.966;2023-09-12T06:01:16;94171.28;;;18.27;56.80
10079;BME280;5078;42.544;22.966;2023-09-12T06:03:44;94178.00;;;18.43;55.87
10079;BME280;5078;42.544;22.966;2023-09-12T06:06:11;94169.47;;;18.53;55.64
10079;BME280;5078;42.544;22.966;2023-09-12T06:08:38;94173.47;;;18.69;55.38
10079;BME280;5078;42.544;22.966;2023-09-12T06:11:05;94175.44;;;17.72;58.88
10079;BME280;5078;42.544;22.966;2023-09-12T06:13:31;94171.13;;;18.86;54.09
10079;BME280;5078;42.544;22.966;2023-09-12T06:16:01;94171.41;;;18.71;54.26
10079;BME280;5078;42.544;22.966;2023-09-12T06:18:27;94170.31;;;19.29;53.30
10079;BME280;5078;42.544;22.966;2023-09-12T06:20:57;94167.72;;;19.22;52.22
10079;BME280;5078;42.544;22.966;2023-09-12T06:23:24;94177.63;;;19.22;51.34
10079;BME280;5078;42.544;22.966;2023-09-12T06:25:51;94176.94;;;19.08;53.96
10079;BME280;5078;42.544;22.966;2023-09-12T06:28:25;94173.19;;;19.89;50.36
10079;BME280;5078;42.544;22.966;2023-09-12T06:30:52;94170.25;;;19.17;51.47
10079;BME280;5078;42.544;22.966;2023-09-12T06:33:18;94169.66;;;19.52;51.68
10079;BME280;5078;42.544;22.966;2023-09-12T06:35:48;94163.78;;;19.98;50.87
10079;BME280;5078;42.544;22.966;2023-09-12T06:38:16;94169.91;;;20.66;48.34
10079;BME280;5078;42.544;22.966;2023-09-12T06:40:43;94167.13;;;20.73;47.82
10079;BME280;5078;42.544;22.966;2023-09-12T06:43:09;94166.63;;;20.34;48.82
10079;BME280;5078;42.544;22.966;2023-09-12T06:45:36;94169.09;;;19.87;50.51
10079;BME280;5078;42.544;22.966;2023-09-12T06:48:04;94167.31;;;20.29;49.54
10079;BME280;5078;42.544;22.966;2023-09-12T06:50:31;94171.47;;;21.39;47.50
10079;BME280;5078;42.544;22.966;2023-09-12T06:52:58;94171.59;;;21.96;45.47
10079;BME280;5078;42.544;22.966;2023-09-12T06:55:28;94165.28;;;22.31;44.52
10079;BME280;5078;42.544;22.966;2023-09-12T06:57:54;94161.38;;;22.68;44.31
10079;BME280;5078;42.544;22.966;2023-09-12T07:00:21;94174.50;;;22.59;43.78
10079;BME280;5078;42.544;22.966;2023-09-12T07:02:48;94178.41;;;23.14;42.90
10079;BME280;5078;42.544;22.966;2023-09-12T07:05:14;94179.91;;;22.76;42.87
10079;BME280;5078;42.544;22.966;2023-09-12T07:07:41;94182.75;;;23.15;43.22
10079;BME280;5078;42.544;22.966;2023-09-12T07:10:08;94183.25;;;23.12;42.44
10079;BME280;5078;42.544;22.966;2023-09-12T07:12:36;94176.72;;;23.80;41.28
10079;BME280;5078;42.544;22.966;2023-09-12T07:15:04;94172.59;;;23.39;41.85
10079;BME280;5078;42.544;22.966;2023-09-12T07:17:31;94166.63;;;23.76;41.71
10079;BME280;5078;42.544;22.966;2023-09-12T07:19:58;94171.81;;;23.60;41.54
10079;BME280;5078;42.544;22.966;2023-09-12T07:22:25;94177.66;;;23.91;41.09
10079;BME280;5078;42.544;22.966;2023-09-12T07:24:52;94170.53;;;24.02;41.30
10079;BME280;5078;42.544;22.966;2023-09-12T07:27:19;94167.09;;;23.89;40.54
10079;BME280;5078;42.544;22.966;2023-09-12T07:29:47;94165.28;;;24.93;39.39
10079;BME280;5078;42.544;22.966;2023-09-12T07:32:13;94163.72;;;24.21;40.88
10079;BME280;5078;42.544;22.966;2023-09-12T07:34:40;94157.75;;;25.01;39.38
10079;BME280;5078;42.544;22.966;2023-09-12T07:37:10;94165.94;;;25.38;38.49
10079;BME280;5078;42.544;22.966;2023-09-12T07:39:37;94161.56;;;25.69;37.71
10079;BME280;5078;42.544;22.966;2023-09-12T07:42:04;94162.38;;;26.17;36.65
10079;BME280;5078;42.544;22.966;2023-09-12T07:44:31;94159.41;;;26.19;36.38
10079;BME280;5078;42.544;22.966;2023-09-12T07:46:59;94163.22;;;25.75;37.26
10079;BME280;5078;42.544;22.966;2023-09-12T07:49:26;94157.31;;;26.41;36.45
10079;BME280;5078;42.544;22.966;2023-09-12T07:51:52;94150.84;;;26.63;36.19
10079;BME280;5078;42.544;22.966;2023-09-12T07:54:22;94137.84;;;25.54;36.61
10079;BME280;5078;42.544;22.966;2023-09-12T07:56:48;94165.34;;;26.16;36.17
10079;BME280;5078;42.544;22.966;2023-09-12T07:59:15;94156.28;;;26.58;35.42
10079;BME280;5078;42.544;22.966;2023-09-12T08:01:42;94156.75;;;26.44;36.01
10079;BME280;5078;42.544;22.966;2023-09-12T08:04:10;94152.56;;;27.41;35.22
10079;BME280;5078;42.544;22.966;2023-09-12T08:06:37;94154.16;;;27.88;33.34
10079;BME280;5078;42.544;22.966;2023-09-12T08:09:04;94159.09;;;27.50;33.40
10079;BME280;5078;42.544;22.966;2023-09-12T08:11:30;94157.50;;;27.34;33.65
10079;BME280;5078;42.544;22.966;2023-09-12T08:13:57;94153.09;;;27.63;32.83
10079;BME280;5078;42.544;22.966;2023-09-12T08:16:24;94156.84;;;28.08;32.79
10079;BME280;5078;42.544;22.966;2023-09-12T08:18:51;94149.56;;;27.52;33.19
10079;BME280;5078;42.544;22.966;2023-09-12T08:21:19;94152.44;;;26.49;33.98
10079;BME280;5078;42.544;22.966;2023-09-12T08:23:45;94143.25;;;27.72;32.42
10079;BME280;5078;42.544;22.966;2023-09-12T08:26:12;94150.78;;;28.22;32.23
10079;BME280;5078;42.544;22.966;2023-09-12T08:28:39;94145.81;;;28.34;32.76
10079;BME280;5078;42.544;22.966;2023-09-12T08:31:06;94148.63;;;28.18;32.54
10079;BME280;5078;42.544;22.966;2023-09-12T08:33:32;94149.59;;;27.32;32.68
10079;BME280;5078;42.544;22.966;2023-09-12T08:35:59;94145.78;;;28.49;31.95
10079;BME280;5078;42.544;22.966;2023-09-12T08:38:27;94146.25;;;28.62;31.41
10079;BME280;5078;42.544;22.966;2023-09-12T08:40:54;94140.31;;;28.49;31.60
10079;BME280;5078;42.544;22.966;2023-09-12T08:43:22;94139.97;;;29.00;31.29
10079;BME280;5078;42.544;22.966;2023-09-12T08:45:49;94139.00;;;28.86;31.32
10079;BME280;5078;42.544;22.966;2023-09-12T08:48:17;94134.31;;;27.51;32.44
10079;BME280;5078;42.544;22.966;2023-09-12T08:50:46;94138.50;;;28.24;31.69
10079;BME280;5078;42.544;22.966;2023-09-12T08:53:14;94136.03;;;28.82;31.61
10079;BME280;5078;42.544;22.966;2023-09-12T08:55:42;94135.16;;;28.37;31.85
10079;BME280;5078;42.544;22.966;2023-09-12T08:58:09;94131.41;;;28.78;31.01
10079;BME280;5078;42.544;22.966;2023-09-12T09:00:36;94128.16;;;28.76;31.49
10079;BME280;5078;42.544;22.966;2023-09-12T09:03:04;94126.56;;;28.70;31.83
10079;BME280;5078;42.544;22.966;2023-09-12T09:05:33;94122.28;;;28.58;31.01
10079;BME280;5078;42.544;22.966;2023-09-12T09:08:02;94115.50;;;29.30;30.81
10079;BME280;5078;42.544;22.966;2023-09-12T09:10:29;94126.53;;;29.49;30.26
10079;BME280;5078;42.544;22.966;2023-09-12T09:12:59;94110.94;;;29.20;29.40
10079;BME280;5078;42.544;22.966;2023-09-12T09:15:27;94110.16;;;29.14;30.02
10079;BME280;5078;42.544;22.966;2023-09-12T09:17:55;94097.91;;;29.70;28.77
10079;BME280;5078;42.544;22.966;2023-09-12T09:20:32;94124.00;;;29.28;29.33
10079;BME280;5078;42.544;22.966;2023-09-12T09:23:01;94118.59;;;29.18;29.68
10079;BME280;5078;42.544;22.966;2023-09-12T09:25:30;94103.56;;;28.81;30.33
10079;BME280;5078;42.544;22.966;2023-09-12T09:28:02;94117.22;;;29.50;29.80
10079;BME280;5078;42.544;22.966;2023-09-12T09:30:40;94111.81;;;29.44;29.46
10079;BME280;5078;42.544;22.966;2023-09-12T09:33:08;94116.28;;;27.76;30.79
10079;BME280;5078;42.544;22.966;2023-09-12T09:35:35;94108.88;;;28.62;30.75
10079;BME280;5078;42.544;22.966;2023-09-12T09:38:03;94106.56;;;28.79;30.41
10079;BME280;5078;42.544;22.966;2023-09-12T09:40:32;94092.53;;;29.60;29.85
10079;BME280;5078;42.544;22.966;2023-09-12T09:43:01;94114.31;;;29.70;29.46
10079;BME280;5078;42.544;22.966;2023-09-12T09:45:29;94100.34;;;30.20;28.82
10079;BME280;5078;42.544;22.966;2023-09-12T09:47:57;94096.22;;;30.22;28.97
10079;BME280;5078;42.544;22.966;2023-09-12T09:50:25;94096.22;;;30.65;29.09
10079;BME280;5078;42.544;22.966;2023-09-12T09:52:54;94096.16;;;30.70;28.16
10079;BME280;5078;42.544;22.966;2023-09-12T09:55:21;94086.97;;;30.61;27.97
10079;BME280;5078;42.544;22.966;2023-09-12T09:57:48;94087.41;;;30.87;28.11
10079;BME280;5078;42.544;22.966;2023-09-12T10:00:19;94080.09;;;30.83;27.77
10079;BME280;5078;42.544;22.966;2023-09-12T10:02:47;94088.19;;;30.93;28.43
10079;BME280;5078;42.544;22.966;2023-09-12T10:05:16;94067.06;;;31.26;27.61
10079;BME280;5078;42.544;22.966;2023-09-12T10:07:47;94085.19;;;31.08;27.64
10079;BME280;5078;42.544;22.966;2023-09-12T10:10:16;94076.19;;;30.89;27.15
10079;BME280;5078;42.544;22.966;2023-09-12T10:12:49;94076.25;;;31.35;26.78
10079;BME280;5078;42.544;22.966;2023-09-12T10:15:19;94070.63;;;30.56;27.47
10079;BME280;5078;42.544;22.966;2023-09-12T10:17:52;94069.84;;;29.88;28.08
10079;BME280;5078;42.544;22.966;2023-09-12T10:20:25;94067.66;;;30.34;27.34
10079;BME280;5078;42.544;22.966;2023-09-12T10:23:02;94057.53;;;30.91;26.79
10079;BME280;5078;42.544;22.966;2023-09-12T10:25:34;94058.25;;;30.97;26.13
10079;BME280;5078;42.544;22.966;2023-09-12T10:28:03;94064.16;;;31.04;25.94
10079;BME280;5078;42.544;22.966;2023-09-12T10:30:32;94049.69;;;30.22;27.18
10079;BME280;5078;42.544;22.966;2023-09-12T10:33:00;94057.09;;;30.22;26.76
10079;BME280;5078;42.544;22.966;2023-09-12T10:35:30;94063.13;;;30.00;26.89
10079;BME280;5078;42.544;22.966;2023-09-12T10:37:59;94059.03;;;30.21;27.29
10079;BME280;5078;42.544;22.966;2023-09-12T10:40:27;94051.69;;;29.74;25.87
10079;BME280;5078;42.544;22.966;2023-09-12T10:42:55;94064.72;;;29.53;24.17
10079;BME280;5078;42.544;22.966;2023-09-12T10:45:22;94045.91;;;29.99;24.56
10079;BME280;5078;42.544;22.966;2023-09-12T10:47:50;94045.97;;;29.70;25.00
10079;BME280;5078;42.544;22.966;2023-09-12T10:50:19;94042.06;;;30.24;23.72
10079;BME280;5078;42.544;22.966;2023-09-12T10:52:46;94012.28;;;28.92;24.78
10079;BME280;5078;42.544;22.966;2023-09-12T10:55:15;94042.75;;;29.63;23.69
10079;BME280;5078;42.544;22.966;2023-09-12T10:58:01;94036.59;;;30.00;24.01
10079;BME280;5078;42.544;22.966;2023-09-12T11:00:29;94030.66;;;30.55;23.29
10079;BME280;5078;42.544;22.966;2023-09-12T11:02:59;94025.19;;;30.74;23.22
10079;BME280;5078;42.544;22.966;2023-09-12T11:05:37;94029.25;;;30.95;24.10
10079;BME280;5078;42.544;22.966;2023-09-12T11:08:04;94009.22;;;30.24;23.86
10079;BME280;5078;42.544;22.966;2023-09-12T11:10:31;94035.25;;;30.79;23.20
10079;BME280;5078;42.544;22.966;2023-09-12T11:12:58;94015.97;;;30.51;23.86
10079;BME280;5078;42.544;22.966;2023-09-12T11:15:26;94029.66;;;30.51;24.10
10079;BME280;5078;42.544;22.966;2023-09-12T11:18:02;94025.63;;;30.05;23.95
10079;BME280;5078;42.544;22.966;2023-09-12T11:20:53;94028.56;;;29.02;25.86
10079;BME280;5078;42.544;22.966;2023-09-12T11:23:24;94027.16;;;29.69;24.84
10079;BME280;5078;42.544;22.966;2023-09-12T11:26:02;94013.00;;;29.61;24.76
10079;BME280;5078;42.544;22.966;2023-09-12T11:28:31;94025.06;;;29.31;25.38
10079;BME280;5078;42.544;22.966;2023-09-12T11:30:58;94014.06;;;29.60;25.19
10079;BME280;5078;42.544;22.966;2023-09-12T11:33:26;94003.69;;;29.62;25.18
10079;BME280;5078;42.544;22.966;2023-09-12T11:35:53;94013.84;;;29.33;24.52
10079;BME280;5078;42.544;22.966;2023-09-12T11:38:27;94009.72;;;29.35;25.37
10079;BME280;5078;42.544;22.966;2023-09-12T11:40:56;94011.78;;;29.73;25.15
10079;BME280;5078;42.544;22.966;2023-09-12T11:43:24;94005.78;;;29.46;25.04
10079;BME280;5078;42.544;22.966;2023-09-12T11:45:52;94005.78;;;29.46;24.32
10079;BME280;5078;42.544;22.966;2023-09-12T11:48:19;94000.88;;;29.19;25.12
10079;BME280;5078;42.544;22.966;2023-09-12T11:50:52;93997.94;;;29.64;24.20
10079;BME280;5078;42.544;22.966;2023-09-12T11:53:21;94001.22;;;29.66;24.12
10079;BME280;5078;42.544;22.966;2023-09-12T11:55:51;93993.38;;;30.02;23.16
10079;BME280;5078;42.544;22.966;2023-09-12T11:58:19;93990.94;;;30.01;22.19
10079;BME280;5078;42.544;22.966;2023-09-12T12:00:48;94000.78;;;29.54;23.26
10079;BME280;5078;42.544;22.966;2023-09-12T12:03:15;93987.63;;;29.32;22.92
10079;BME280;5078;42.544;22.966;2023-09-12T12:05:42;93991.97;;;29.86;22.22
10079;BME280;5078;42.544;22.966;2023-09-12T12:08:11;93975.84;;;29.84;22.48
10079;BME280;5078;42.544;22.966;2023-09-12T12:10:38;93979.56;;;29.70;22.60
10079;BME280;5078;42.544;22.966;2023-09-12T12:13:05;93985.38;;;29.87;22.05
10079;BME280;5078;42.544;22.966;2023-09-12T12:15:32;93981.47;;;29.93;22.06
10079;BME280;5078;42.544;22.966;2023-09-12T12:17:58;93980.09;;;29.72;21.75
10079;BME280;5078;42.544;22.966;2023-09-12T12:20:25;93970.22;;;29.76;22.77
10079;BME280;5078;42.544;22.966;2023-09-12T12:22:54;93974.72;;;29.37;21.28
10079;BME280;5078;42.544;22.966;2023-09-12T12:25:22;93973.75;;;29.76;21.00
10079;BME280;5078;42.544;22.966;2023-09-12T12:27:49;93970.59;;;29.88;22.15
10079;BME280;5078;42.544;22.966;2023-09-12T12:30:17;93964.09;;;30.03;22.64
10079;BME280;5078;42.544;22.966;2023-09-12T12:32:45;93965.38;;;30.10;22.34
10079;BME280;5078;42.544;22.966;2023-09-12T12:35:17;93961.88;;;30.05;22.17
10079;BME280;5078;42.544;22.966;2023-09-12T12:37:44;93951.69;;;30.10;22.41
10079;BME280;5078;42.544;22.966;2023-09-12T12:40:11;93962.81;;;30.38;21.58
10079;BME280;5078;42.544;22.966;2023-09-12T12:42:41;93958.56;;;29.65;21.32
10079;BME280;5078;42.544;22.966;2023-09-12T12:45:12;93946.88;;;29.59;21.79
10079;BME280;5078;42.544;22.966;2023-09-12T12:47:39;93955.00;;;29.45;22.08
10079;BME280;5078;42.544;22.966;2023-09-12T12:50:08;93932.59;;;29.67;22.74
10079;BME280;5078;42.544;22.966;2023-09-12T12:52:37;93943.06;;;30.03;23.61
10079;BME280;5078;42.544;22.966;2023-09-12T12:55:04;93949.84;;;30.25;21.03
10079;BME280;5078;42.544;22.966;2023-09-12T12:57:31;93912.88;;;30.27;20.67
10079;BME280;5078;42.544;22.966;2023-09-12T12:59:59;93950.09;;;30.28;21.40
10079;BME280;5078;42.544;22.966;2023-09-12T13:02:28;93945.25;;;30.39;21.50
10079;BME280;5078;42.544;22.966;2023-09-12T13:04:54;93935.66;;;30.42;21.02